sensor_id;sensor_type;location;lat;lon;timestamp;pressure;altitude;pressure_sealevel;temperature;humidity
10978;BME280;5542;48.272;10.794;2022-12-17T00:02:02;95753.44;;;-2.11;80.07
10978;BME280;5542;48.272;10.794;2022-12-17T00:04:46;95758.31;;;-2.08;80.72
10978;BME280;5542;48.272;10.794;2022-12-17T00:07:31;95755.06;;;-2.10;80.63
10978;BME280;5542;48.272;10.794;2022-12-17T00:10:15;95775.41;;;-2.07;80.81
10978;BME280;5542;48.272;10.794;2022-12-17T00:12:59;95771.84;;;-2.06;80.49
10978;BME280;5542;48.272;10.794;2022-12-17T00:15:49;95774.22;;;-2.13;80.55
10978;BME280;5542;48.272;10.794;2022-12-17T00:18:34;95775.09;;;-2.04;78.98
10978;BME280;5542;48.272;10.794;2022-12-17T00:21:18;95775.16;;;-2.14;79.64
10978;BME280;5542;48.272;10.794;2022-12-17T00:24:04;95782.25;;;-2.16;79.49
10978;BME280;5542;48.272;10.794;2022-12-17T00:26:48;95778.84;;;-1.98;78.12
10978;BME280;5542;48.272;10.794;2022-12-17T00:29:32;95782.53;;;-2.19;77.48
10978;BME280;5542;48.272;10.794;2022-12-17T00:32:16;95787.91;;;-2.30;78.07
10978;BME280;5542;48.272;10.794;2022-12-17T00:35:00;95793.13;;;-2.40;78.54
10978;BME280;5542;48.272;10.794;2022-12-17T00:37:45;95796.94;;;-2.44;79.10
10978;BME280;5542;48.272;10.794;2022-12-17T00:40:30;95795.88;;;-2.41;79.45
10978;BME280;5542;48.272;10.794;2022-12-17T00:43:14;95795.63;;;-2.48;79.08
10978;BME280;5542;48.272;10.794;2022-12-17T00:45:58;95809.19;;;-2.46;79.10
10978;BME280;5542;48.272;10.794;2022-12-17T00:48:43;95802.47;;;-2.39;79.07
10978;BME280;5542;48.272;10.794;2022-12-17T00:51:27;95806.66;;;-2.38;79.33
10978;BME280;5542;48.272;10.794;2022-12-17T00:54:11;95810.72;;;-2.35;79.15
10978;BME280;5542;48.272;10.794;2022-12-17T00:57:11;95815.72;;;-2.34;78.73
10978;BME280;5542;48.272;10.794;2022-12-17T00:59:55;95823.16;;;-2.30;78.43
10978;BME280;5542;48.272;10.794;2022-12-17T01:02:39;95829.03;;;-2.38;78.58
10978;BME280;5542;48.272;10.794;2022-12-17T01:05:23;95830.97;;;-2.40;78.61
10978;BME280;5542;48.272;10.794;2022-12-17T01:08:08;95832.16;;;-2.35;77.99
10978;BME280;5542;48.272;10.794;2022-12-17T01:10:57;95836.56;;;-2.45;78.64
10978;BME280;5542;48.272;10.794;2022-12-17T01:13:43;95837.19;;;-2.43;78.55
10978;BME280;5542;48.272;10.794;2022-12-17T01:16:27;95844.66;;;-2.40;78.71
10978;BME280;5542;48.272;10.794;2022-12-17T01:19:11;95845.88;;;-2.44;79.09
10978;BME280;5542;48.272;10.794;2022-12-17T01:21:55;95852.16;;;-2.46;78.35
10978;BME280;5542;48.272;10.794;2022-12-17T01:24:39;95851.47;;;-2.48;78.34
10978;BME280;5542;48.272;10.794;2022-12-17T01:27:23;95851.78;;;-2.51;78.72
10978;BME280;5542;48.272;10.794;2022-12-17T01:30:09;95857.31;;;-2.46;78.68
10978;BME280;5542;48.272;10.794;2022-12-17T01:32:59;95859.28;;;-2.40;78.91
10978;BME280;5542;48.272;10.794;2022-12-17T01:35:44;95854.41;;;-2.43;78.70
10978;BME280;5542;48.272;10.794;2022-12-17T01:38:28;95861.19;;;-2.42;78.42
10978;BME280;5542;48.272;10.794;2022-12-17T01:41:12;95863.66;;;-2.41;78.40
10978;BME280;5542;48.272;10.794;2022-12-17T01:44:35;95869.06;;;-2.44;78.29
10978;BME280;5542;48.272;10.794;2022-12-17T01:47:30;95871.66;;;-2.44;78.08
10978;BME280;5542;48.272;10.794;2022-12-17T01:50:16;95872.88;;;-2.48;78.25
10978;BME280;5542;48.272;10.794;2022-12-17T01:53:03;95873.19;;;-2.51;78.47
10978;BME280;5542;48.272;10.794;2022-12-17T01:55:48;95868.69;;;-2.49;78.19
10978;BME280;5542;48.272;10.794;2022-12-17T01:58:35;95873.56;;;-2.46;77.90
10978;BME280;5542;48.272;10.794;2022-12-17T02:01:19;95876.25;;;-2.47;77.90
10978;BME280;5542;48.272;10.794;2022-12-17T02:04:05;95877.22;;;-2.48;77.86
10978;BME280;5542;48.272;10.794;2022-12-17T02:07:02;95876.56;;;-2.50;77.39
10978;BME280;5542;48.272;10.794;2022-12-17T02:09:57;95888.25;;;-2.56;76.86
10978;BME280;5542;48.272;10.794;2022-12-17T02:13:00;95888.16;;;-2.64;77.34
10978;BME280;5542;48.272;10.794;2022-12-17T02:15:51;95898.88;;;-2.69;77.04
10978;BME280;5542;48.272;10.794;2022-12-17T02:18:41;95900.66;;;-2.69;77.16
10978;BME280;5542;48.272;10.794;2022-12-17T02:21:38;95901.88;;;-2.73;77.17
10978;BME280;5542;48.272;10.794;2022-12-17T02:24:29;95900.00;;;-2.81;77.38
10978;BME280;5542;48.272;10.794;2022-12-17T02:27:16;95903.81;;;-2.85;77.25
10978;BME280;5542;48.272;10.794;2022-12-17T02:30:03;95905.72;;;-2.87;77.73
10978;BME280;5542;48.272;10.794;2022-12-17T02:32:48;95910.91;;;-2.97;77.43
10978;BME280;5542;48.272;10.794;2022-12-17T02:35:37;95909.00;;;-2.95;77.77
10978;BME280;5542;48.272;10.794;2022-12-17T02:38:25;95912.81;;;-2.99;77.29
10978;BME280;5542;48.272;10.794;2022-12-17T02:41:12;95920.13;;;-3.04;77.67
10978;BME280;5542;48.272;10.794;2022-12-17T02:43:59;95924.75;;;-3.07;77.45
10978;BME280;5542;48.272;10.794;2022-12-17T02:46:44;95928.53;;;-3.02;77.19
10978;BME280;5542;48.272;10.794;2022-12-17T02:49:29;95931.75;;;-3.00;76.64
10978;BME280;5542;48.272;10.794;2022-12-17T02:52:15;95938.25;;;-2.96;76.40
10978;BME280;5542;48.272;10.794;2022-12-17T02:55:00;95933.53;;;-3.00;76.44
10978;BME280;5542;48.272;10.794;2022-12-17T02:57:45;95937.47;;;-3.06;76.69
10978;BME280;5542;48.272;10.794;2022-12-17T03:00:30;95937.88;;;-3.11;76.77
10978;BME280;5542;48.272;10.794;2022-12-17T03:03:14;95943.72;;;-3.08;76.82
10978;BME280;5542;48.272;10.794;2022-12-17T03:05:58;95943.84;;;-3.10;76.67
10978;BME280;5542;48.272;10.794;2022-12-17T03:08:42;95948.19;;;-3.11;76.64
10978;BME280;5542;48.272;10.794;2022-12-17T03:11:27;95957.50;;;-3.10;76.34
10978;BME280;5542;48.272;10.794;2022-12-17T03:14:11;95963.63;;;-3.11;76.08
10978;BME280;5542;48.272;10.794;2022-12-17T03:16:56;95965.53;;;-3.13;75.29
10978;BME280;5542;48.272;10.794;2022-12-17T03:19:40;95963.63;;;-3.20;75.17
10978;BME280;5542;48.272;10.794;2022-12-17T03:22:24;95968.91;;;-3.22;74.90
10978;BME280;5542;48.272;10.794;2022-12-17T03:25:08;95965.94;;;-3.27;74.86
10978;BME280;5542;48.272;10.794;2022-12-17T03:27:52;95972.84;;;-3.27;74.83
10978;BME280;5542;48.272;10.794;2022-12-17T03:30:36;95970.00;;;-3.34;74.59
10978;BME280;5542;48.272;10.794;2022-12-17T03:33:22;95978.81;;;-3.37;74.48
10978;BME280;5542;48.272;10.794;2022-12-17T03:36:06;95984.63;;;-3.44;73.99
10978;BME280;5542;48.272;10.794;2022-12-17T03:38:50;95984.78;;;-3.46;73.88
10978;BME280;5542;48.272;10.794;2022-12-17T03:41:34;95988.56;;;-3.50;73.82
10978;BME280;5542;48.272;10.794;2022-12-17T03:44:18;95991.22;;;-3.61;73.97
10978;BME280;5542;48.272;10.794;2022-12-17T03:47:02;95995.56;;;-3.62;74.01
10978;BME280;5542;48.272;10.794;2022-12-17T03:49:47;95995.56;;;-3.62;74.12
10978;BME280;5542;48.272;10.794;2022-12-17T03:52:31;95990.31;;;-3.60;73.70
10978;BME280;5542;48.272;10.794;2022-12-17T03:55:16;95989.75;;;-3.64;73.50
10978;BME280;5542;48.272;10.794;2022-12-17T03:58:00;95993.78;;;-3.71;73.31
10978;BME280;5542;48.272;10.794;2022-12-17T04:00:44;95994.06;;;-3.83;73.20
10978;BME280;5542;48.272;10.794;2022-12-17T04:03:25;95993.50;;;-3.97;73.36
10978;BME280;5542;48.272;10.794;2022-12-17T04:06:10;96003.34;;;-4.02;72.93
10978;BME280;5542;48.272;10.794;2022-12-17T04:08:54;96011.72;;;-4.09;73.60
10978;BME280;5542;48.272;10.794;2022-12-17T04:11:38;96007.53;;;-4.10;73.55
10978;BME280;5542;48.272;10.794;2022-12-17T04:14:22;96008.88;;;-4.06;73.30
10978;BME280;5542;48.272;10.794;2022-12-17T04:17:06;96012.94;;;-4.04;72.49
10978;BME280;5542;48.272;10.794;2022-12-17T04:19:50;96015.88;;;-4.18;72.62
10978;BME280;5542;48.272;10.794;2022-12-17T04:22:36;96015.41;;;-4.33;72.28
10978;BME280;5542;48.272;10.794;2022-12-17T04:25:20;96020.88;;;-4.47;72.49
10978;BME280;5542;48.272;10.794;2022-12-17T04:28:04;96022.22;;;-4.53;73.14
10978;BME280;5542;48.272;10.794;2022-12-17T04:30:48;96024.59;;;-4.61;73.01
10978;BME280;5542;48.272;10.794;2022-12-17T04:33:32;96025.97;;;-4.57;73.47
10978;BME280;5542;48.272;10.794;2022-12-17T04:36:16;96030.44;;;-4.59;73.90
10978;BME280;5542;48.272;10.794;2022-12-17T04:39:01;96024.34;;;-4.58;74.08
10978;BME280;5542;48.272;10.794;2022-12-17T04:41:45;96032.44;;;-4.63;74.00
10978;BME280;5542;48.272;10.794;2022-12-17T04:44:29;96031.34;;;-4.70;74.24
10978;BME280;5542;48.272;10.794;2022-12-17T04:47:13;96036.94;;;-4.76;74.58
10978;BME280;5542;48.272;10.794;2022-12-17T04:49:57;96045.09;;;-4.71;74.81
10978;BME280;5542;48.272;10.794;2022-12-17T04:52:41;96046.59;;;-4.68;72.74
10978;BME280;5542;48.272;10.794;2022-12-17T04:55:26;96044.16;;;-4.70;72.37
10978;BME280;5542;48.272;10.794;2022-12-17T04:58:10;96051.97;;;-4.71;70.88
10978;BME280;5542;48.272;10.794;2022-12-17T05:00:56;96060.19;;;-4.77;69.89
10978;BME280;5542;48.272;10.794;2022-12-17T05:03:46;96060.50;;;-4.92;70.24
10978;BME280;5542;48.272;10.794;2022-12-17T05:06:30;96064.00;;;-4.93;70.46
10978;BME280;5542;48.272;10.794;2022-12-17T05:09:11;96070.75;;;-4.92;70.53
10978;BME280;5542;48.272;10.794;2022-12-17T05:12:02;96075.22;;;-4.94;71.22
10978;BME280;5542;48.272;10.794;2022-12-17T05:14:46;96080.81;;;-5.00;71.42
10978;BME280;5542;48.272;10.794;2022-12-17T05:17:30;96081.91;;;-5.02;70.79
10978;BME280;5542;48.272;10.794;2022-12-17T05:20:13;96089.59;;;-5.02;70.51
10978;BME280;5542;48.272;10.794;2022-12-17T05:23:03;96091.22;;;-5.01;70.10
10978;BME280;5542;48.272;10.794;2022-12-17T05:25:48;96095.91;;;-5.06;70.37
10978;BME280;5542;48.272;10.794;2022-12-17T05:28:33;96101.34;;;-5.00;70.06
10978;BME280;5542;48.272;10.794;2022-12-17T05:31:17;96104.03;;;-5.01;69.95
10978;BME280;5542;48.272;10.794;2022-12-17T05:34:01;96112.53;;;-5.01;69.93
10978;BME280;5542;48.272;10.794;2022-12-17T05:36:46;96105.34;;;-5.07;70.47
10978;BME280;5542;48.272;10.794;2022-12-17T05:39:32;96104.84;;;-5.01;70.76
10978;BME280;5542;48.272;10.794;2022-12-17T05:42:16;96105.66;;;-5.00;71.29
10978;BME280;5542;48.272;10.794;2022-12-17T05:45:01;96108.09;;;-4.99;71.41
10978;BME280;5542;48.272;10.794;2022-12-17T05:47:45;96112.84;;;-4.94;71.79
10978;BME280;5542;48.272;10.794;2022-12-17T05:50:29;96118.03;;;-5.05;72.02
10978;BME280;5542;48.272;10.794;2022-12-17T05:53:13;96117.47;;;-5.09;72.70
10978;BME280;5542;48.272;10.794;2022-12-17T05:55:57;96125.38;;;-5.01;71.59
10978;BME280;5542;48.272;10.794;2022-12-17T05:58:41;96129.69;;;-5.01;71.36
10978;BME280;5542;48.272;10.794;2022-12-17T06:01:26;96136.31;;;-4.99;70.98
10978;BME280;5542;48.272;10.794;2022-12-17T06:04:10;96140.25;;;-4.95;70.23
10978;BME280;5542;48.272;10.794;2022-12-17T06:06:54;96142.81;;;-4.95;69.60
10978;BME280;5542;48.272;10.794;2022-12-17T06:09:38;96139.72;;;-4.98;69.40
10978;BME280;5542;48.272;10.794;2022-12-17T06:12:22;96141.81;;;-5.03;69.37
10978;BME280;5542;48.272;10.794;2022-12-17T06:15:07;96152.47;;;-5.08;69.79
10978;BME280;5542;48.272;10.794;2022-12-17T06:17:54;96152.31;;;-5.06;69.32
10978;BME280;5542;48.272;10.794;2022-12-17T06:20:38;96152.69;;;-5.11;69.36
10978;BME280;5542;48.272;10.794;2022-12-17T06:23:22;96149.66;;;-5.16;69.72
10978;BME280;5542;48.272;10.794;2022-12-17T06:26:06;96152.97;;;-5.25;70.40
10978;BME280;5542;48.272;10.794;2022-12-17T06:28:50;96150.88;;;-5.43;70.51
10978;BME280;5542;48.272;10.794;2022-12-17T06:31:34;96160.19;;;-5.42;71.19
10978;BME280;5542;48.272;10.794;2022-12-17T06:34:19;96166.94;;;-5.29;70.48
10978;BME280;5542;48.272;10.794;2022-12-17T06:37:12;96165.06;;;-5.27;70.09
10978;BME280;5542;48.272;10.794;2022-12-17T06:39:56;96169.38;;;-5.28;69.41
10978;BME280;5542;48.272;10.794;2022-12-17T06:42:40;96173.47;;;-5.36;69.34
10978;BME280;5542;48.272;10.794;2022-12-17T06:45:24;96172.78;;;-5.38;69.98
10978;BME280;5542;48.272;10.794;2022-12-17T06:48:08;96176.88;;;-5.36;70.67
10978;BME280;5542;48.272;10.794;2022-12-17T06:50:54;96184.66;;;-5.37;70.78
10978;BME280;5542;48.272;10.794;2022-12-17T06:53:38;96185.03;;;-5.31;70.52
10978;BME280;5542;48.272;10.794;2022-12-17T06:56:22;96194.47;;;-5.31;69.23
10978;BME280;5542;48.272;10.794;2022-12-17T06:59:06;96200.06;;;-5.37;68.49
10978;BME280;5542;48.272;10.794;2022-12-17T07:01:50;96204.72;;;-5.43;68.59
10978;BME280;5542;48.272;10.794;2022-12-17T07:04:34;96212.16;;;-5.51;68.70
10978;BME280;5542;48.272;10.794;2022-12-17T07:07:20;96224.78;;;-5.59;69.34
10978;BME280;5542;48.272;10.794;2022-12-17T07:10:04;96232.69;;;-5.62;69.48
10978;BME280;5542;48.272;10.794;2022-12-17T07:12:49;96237.47;;;-5.69;69.70
10978;BME280;5542;48.272;10.794;2022-12-17T07:15:33;96229.66;;;-5.67;69.21
10978;BME280;5542;48.272;10.794;2022-12-17T07:18:17;96232.69;;;-5.62;68.96
10978;BME280;5542;48.272;10.794;2022-12-17T07:21:01;96235.13;;;-5.60;68.38
10978;BME280;5542;48.272;10.794;2022-12-17T07:23:46;96235.97;;;-5.60;67.73
10978;BME280;5542;48.272;10.794;2022-12-17T07:26:30;96238.97;;;-5.66;67.42
10978;BME280;5542;48.272;10.794;2022-12-17T07:29:14;96238.28;;;-5.68;66.71
10978;BME280;5542;48.272;10.794;2022-12-17T07:31:58;96246.31;;;-5.73;66.57
10978;BME280;5542;48.272;10.794;2022-12-17T07:34:42;96255.28;;;-5.78;67.25
10978;BME280;5542;48.272;10.794;2022-12-17T07:37:27;96257.13;;;-5.80;68.03
10978;BME280;5542;48.272;10.794;2022-12-17T07:40:12;96249.09;;;-5.87;68.00
10978;BME280;5542;48.272;10.794;2022-12-17T07:42:56;96262.28;;;-5.91;68.63
10978;BME280;5542;48.272;10.794;2022-12-17T07:45:40;96264.13;;;-5.82;68.01
10978;BME280;5542;48.272;10.794;2022-12-17T07:48:24;96266.09;;;-5.86;66.38
10978;BME280;5542;48.272;10.794;2022-12-17T07:51:08;96263.66;;;-5.87;66.30
10978;BME280;5542;48.272;10.794;2022-12-17T07:53:52;96262.84;;;-5.88;66.31
10978;BME280;5542;48.272;10.794;2022-12-17T07:56:49;96264.25;;;-5.95;66.31
10978;BME280;5542;48.272;10.794;2022-12-17T07:59:33;96257.84;;;-6.01;66.01
10978;BME280;5542;48.272;10.794;2022-12-17T08:02:18;96267.59;;;-6.06;66.72
10978;BME280;5542;48.272;10.794;2022-12-17T08:05:02;96274.22;;;-6.03;67.07
10978;BME280;5542;48.272;10.794;2022-12-17T08:07:46;96269.22;;;-6.05;66.29
10978;BME280;5542;48.272;10.794;2022-12-17T08:10:30;96277.84;;;-6.06;66.12
10978;BME280;5542;48.272;10.794;2022-12-17T08:13:15;96274.47;;;-6.06;66.55
10978;BME280;5542;48.272;10.794;2022-12-17T08:15:59;96272.72;;;-6.06;66.77
10978;BME280;5542;48.272;10.794;2022-12-17T08:18:43;96290.91;;;-5.98;65.50
10978;BME280;5542;48.272;10.794;2022-12-17T08:21:27;96286.47;;;-5.96;65.69
10978;BME280;5542;48.272;10.794;2022-12-17T08:24:11;96292.41;;;-5.95;65.82
10978;BME280;5542;48.272;10.794;2022-12-17T08:26:55;96294.38;;;-5.87;65.79
10978;BME280;5542;48.272;10.794;2022-12-17T08:29:41;96299.41;;;-5.86;66.38
10978;BME280;5542;48.272;10.794;2022-12-17T08:32:24;96307.69;;;-5.82;65.94
10978;BME280;5542;48.272;10.794;2022-12-17T08:35:08;96305.00;;;-5.92;66.26
10978;BME280;5542;48.272;10.794;2022-12-17T08:37:53;96314.75;;;-5.86;66.56
10978;BME280;5542;48.272;10.794;2022-12-17T08:40:42;96314.09;;;-5.77;66.77
10978;BME280;5542;48.272;10.794;2022-12-17T08:43:26;96326.47;;;-5.59;67.14
10978;BME280;5542;48.272;10.794;2022-12-17T08:46:12;96313.31;;;-5.44;66.79
10978;BME280;5542;48.272;10.794;2022-12-17T08:48:56;96323.56;;;-5.32;66.40
10978;BME280;5542;48.272;10.794;2022-12-17T08:51:40;96328.00;;;-5.34;66.58
10978;BME280;5542;48.272;10.794;2022-12-17T08:54:25;96319.84;;;-5.39;67.34
10978;BME280;5542;48.272;10.794;2022-12-17T08:57:09;96316.94;;;-5.24;67.72
10978;BME280;5542;48.272;10.794;2022-12-17T08:59:49;96323.13;;;-5.15;67.96
10978;BME280;5542;48.272;10.794;2022-12-17T09:02:35;96329.19;;;-5.05;68.23
10978;BME280;5542;48.272;10.794;2022-12-17T09:05:19;96335.59;;;-4.88;67.12
10978;BME280;5542;48.272;10.794;2022-12-17T09:08:05;96336.53;;;-4.78;67.25
10978;BME280;5542;48.272;10.794;2022-12-17T09:10:50;96330.09;;;-4.72;67.56
10978;BME280;5542;48.272;10.794;2022-12-17T09:13:34;96332.28;;;-4.68;67.24
10978;BME280;5542;48.272;10.794;2022-12-17T09:16:18;96340.94;;;-4.69;68.25
10978;BME280;5542;48.272;10.794;2022-12-17T09:19:15;96332.06;;;-4.65;68.57
10978;BME280;5542;48.272;10.794;2022-12-17T09:21:59;96341.72;;;-4.57;68.82
10978;BME280;5542;48.272;10.794;2022-12-17T09:24:44;96342.28;;;-4.42;68.98
10978;BME280;5542;48.272;10.794;2022-12-17T09:27:28;96342.97;;;-4.40;68.84
10978;BME280;5542;48.272;10.794;2022-12-17T09:30:12;96342.63;;;-4.35;69.60
10978;BME280;5542;48.272;10.794;2022-12-17T09:32:56;96346.66;;;-4.22;69.33
10978;BME280;5542;48.272;10.794;2022-12-17T09:35:53;96348.16;;;-4.19;69.41
10978;BME280;5542;48.272;10.794;2022-12-17T09:38:37;96350.38;;;-4.15;69.80
10978;BME280;5542;48.272;10.794;2022-12-17T09:41:43;96353.97;;;-4.06;70.08
10978;BME280;5542;48.272;10.794;2022-12-17T09:44:36;96350.78;;;-3.98;70.68
10978;BME280;5542;48.272;10.794;2022-12-17T09:47:31;96354.56;;;-3.81;71.31
10978;BME280;5542;48.272;10.794;2022-12-17T09:50:16;96356.69;;;-3.66;72.08
10978;BME280;5542;48.272;10.794;2022-12-17T09:53:00;96358.13;;;-3.52;71.94
10978;BME280;5542;48.272;10.794;2022-12-17T09:55:46;96355.94;;;-3.36;71.23
10978;BME280;5542;48.272;10.794;2022-12-17T09:58:35;96354.66;;;-3.20;70.70
10978;BME280;5542;48.272;10.794;2022-12-17T10:01:20;96358.06;;;-3.20;71.97
10978;BME280;5542;48.272;10.794;2022-12-17T10:04:31;96355.97;;;-3.05;72.92
10978;BME280;5542;48.272;10.794;2022-12-17T10:07:21;96360.00;;;-2.81;71.72
10978;BME280;5542;48.272;10.794;2022-12-17T10:10:15;96364.59;;;-2.75;72.17
10978;BME280;5542;48.272;10.794;2022-12-17T10:12:59;96369.13;;;-2.68;71.62
10978;BME280;5542;48.272;10.794;2022-12-17T10:15:40;96369.00;;;-2.57;71.65
10978;BME280;5542;48.272;10.794;2022-12-17T10:18:33;96372.16;;;-2.43;71.59
10978;BME280;5542;48.272;10.794;2022-12-17T10:21:18;96368.69;;;-2.33;71.46
10978;BME280;5542;48.272;10.794;2022-12-17T10:24:06;96367.31;;;-2.37;70.85
10978;BME280;5542;48.272;10.794;2022-12-17T10:26:51;96364.03;;;-2.39;70.97
10978;BME280;5542;48.272;10.794;2022-12-17T10:29:50;96360.97;;;-2.33;70.84
10978;BME280;5542;48.272;10.794;2022-12-17T10:32:35;96374.66;;;-2.22;71.54
10978;BME280;5542;48.272;10.794;2022-12-17T10:35:21;96374.94;;;-2.16;70.33
10978;BME280;5542;48.272;10.794;2022-12-17T10:38:10;96371.94;;;-2.21;71.30
10978;BME280;5542;48.272;10.794;2022-12-17T10:40:54;96380.25;;;-2.17;71.28
10978;BME280;5542;48.272;10.794;2022-12-17T10:43:40;96375.91;;;-2.17;71.53
10978;BME280;5542;48.272;10.794;2022-12-17T10:46:27;96372.22;;;-2.14;72.01
10978;BME280;5542;48.272;10.794;2022-12-17T10:49:13;96373.88;;;-2.13;71.92
10978;BME280;5542;48.272;10.794;2022-12-17T10:51:59;96370.19;;;-2.11;71.92
10978;BME280;5542;48.272;10.794;2022-12-17T10:54:55;96372.78;;;-2.11;71.14
10978;BME280;5542;48.272;10.794;2022-12-17T10:57:39;96377.25;;;-2.22;71.37
10978;BME280;5542;48.272;10.794;2022-12-17T11:00:26;96376.84;;;-2.27;72.07
10978;BME280;5542;48.272;10.794;2022-12-17T11:03:26;96371.75;;;-2.48;73.81
10978;BME280;5542;48.272;10.794;2022-12-17T11:06:11;96379.63;;;-2.80;73.13
10978;BME280;5542;48.272;10.794;2022-12-17T11:08:59;96389.03;;;-3.00;73.46
10978;BME280;5542;48.272;10.794;2022-12-17T11:11:45;96386.22;;;-3.18;74.05
10978;BME280;5542;48.272;10.794;2022-12-17T11:14:31;96384.34;;;-3.58;76.11
10978;BME280;5542;48.272;10.794;2022-12-17T11:17:37;96388.75;;;-3.49;76.60
10978;BME280;5542;48.272;10.794;2022-12-17T11:20:26;96382.28;;;-3.43;76.51
10978;BME280;5542;48.272;10.794;2022-12-17T11:23:17;96380.38;;;-3.51;77.11
10978;BME280;5542;48.272;10.794;2022-12-17T11:26:05;96381.63;;;-3.45;78.09
10978;BME280;5542;48.272;10.794;2022-12-17T11:28:51;96378.50;;;-3.18;77.04
10978;BME280;5542;48.272;10.794;2022-12-17T11:31:54;96377.69;;;-2.98;77.16
10978;BME280;5542;48.272;10.794;2022-12-17T11:34:56;96376.72;;;-2.97;76.54
10978;BME280;5542;48.272;10.794;2022-12-17T11:38:03;96375.00;;;-2.87;76.20
10978;BME280;5542;48.272;10.794;2022-12-17T11:43:22;96377.53;;;-2.96;73.16
10978;BME280;5542;48.272;10.794;2022-12-17T11:46:18;96382.53;;;-2.95;72.95
10978;BME280;5542;48.272;10.794;2022-12-17T11:49:12;96381.34;;;-3.21;73.43
10978;BME280;5542;48.272;10.794;2022-12-17T11:52:06;96384.25;;;-3.36;74.72
10978;BME280;5542;48.272;10.794;2022-12-17T11:54:58;96392.91;;;-3.37;74.81
10978;BME280;5542;48.272;10.794;2022-12-17T11:57:49;96387.44;;;-3.22;74.53
10978;BME280;5542;48.272;10.794;2022-12-17T12:00:41;96384.34;;;-3.16;76.08
10978;BME280;5542;48.272;10.794;2022-12-17T12:03:35;96385.03;;;-3.14;76.80
10978;BME280;5542;48.272;10.794;2022-12-17T12:06:31;96389.78;;;-3.10;77.57
10978;BME280;5542;48.272;10.794;2022-12-17T12:09:27;96389.75;;;-3.19;76.95
10978;BME280;5542;48.272;10.794;2022-12-17T12:12:23;96392.81;;;-3.25;77.45
10978;BME280;5542;48.272;10.794;2022-12-17T12:15:20;96387.53;;;-3.24;76.45
10978;BME280;5542;48.272;10.794;2022-12-17T12:18:11;96392.16;;;-3.27;76.92
10978;BME280;5542;48.272;10.794;2022-12-17T12:21:12;96386.97;;;-3.06;75.78
10978;BME280;5542;48.272;10.794;2022-12-17T12:24:10;96401.94;;;-3.21;76.17
10978;BME280;5542;48.272;10.794;2022-12-17T12:27:08;96400.25;;;-3.32;77.58
10978;BME280;5542;48.272;10.794;2022-12-17T12:30:02;96389.91;;;-3.42;78.00
10978;BME280;5542;48.272;10.794;2022-12-17T12:32:55;96394.56;;;-3.47;78.32
10978;BME280;5542;48.272;10.794;2022-12-17T12:35:41;96394.56;;;-3.47;78.34
10978;BME280;5542;48.272;10.794;2022-12-17T12:38:37;96392.69;;;-3.66;79.13
10978;BME280;5542;48.272;10.794;2022-12-17T12:41:27;96391.34;;;-3.81;79.99
10978;BME280;5542;48.272;10.794;2022-12-17T12:44:21;96396.53;;;-3.92;80.36
10978;BME280;5542;48.272;10.794;2022-12-17T12:47:12;96400.94;;;-4.15;81.86
10978;BME280;5542;48.272;10.794;2022-12-17T12:50:04;96401.84;;;-4.05;80.12
10978;BME280;5542;48.272;10.794;2022-12-17T12:52:56;96398.50;;;-4.17;81.33
10978;BME280;5542;48.272;10.794;2022-12-17T12:55:41;96406.59;;;-4.00;81.22
10978;BME280;5542;48.272;10.794;2022-12-17T12:58:25;96404.28;;;-3.71;80.56
10978;BME280;5542;48.272;10.794;2022-12-17T13:01:11;96405.94;;;-3.70;80.55
10978;BME280;5542;48.272;10.794;2022-12-17T13:03:57;96411.63;;;-3.67;80.26
10978;BME280;5542;48.272;10.794;2022-12-17T13:06:45;96412.06;;;-3.62;80.86
10978;BME280;5542;48.272;10.794;2022-12-17T13:09:22;96412.09;;;-3.41;80.26
10978;BME280;5542;48.272;10.794;2022-12-17T13:12:08;96410.25;;;-3.29;79.27
10978;BME280;5542;48.272;10.794;2022-12-17T13:14:45;96414.34;;;-3.26;79.11
10978;BME280;5542;48.272;10.794;2022-12-17T13:17:26;96406.50;;;-3.25;78.89
10978;BME280;5542;48.272;10.794;2022-12-17T13:20:00;96409.22;;;-3.26;78.23
10978;BME280;5542;48.272;10.794;2022-12-17T13:22:28;96412.13;;;-3.10;78.37
10978;BME280;5542;48.272;10.794;2022-12-17T13:25:12;96407.13;;;-3.12;77.93
10978;BME280;5542;48.272;10.794;2022-12-17T13:27:40;96410.03;;;-3.26;76.96
10978;BME280;5542;48.272;10.794;2022-12-17T13:30:20;96409.78;;;-3.23;77.28
10978;BME280;5542;48.272;10.794;2022-12-17T13:32:54;96408.19;;;-3.14;76.60
10978;BME280;5542;48.272;10.794;2022-12-17T13:35:32;96410.75;;;-3.14;75.66
10978;BME280;5542;48.272;10.794;2022-12-17T13:38:06;96413.28;;;-3.24;75.37
10978;BME280;5542;48.272;10.794;2022-12-17T13:40:42;96414.28;;;-3.36;75.14
10978;BME280;5542;48.272;10.794;2022-12-17T13:43:15;96420.94;;;-3.33;76.36
10978;BME280;5542;48.272;10.794;2022-12-17T13:45:42;96424.88;;;-3.29;75.97
10978;BME280;5542;48.272;10.794;2022-12-17T13:48:19;96426.66;;;-3.30;75.41
10978;BME280;5542;48.272;10.794;2022-12-17T13:50:52;96428.03;;;-3.26;75.00
10978;BME280;5542;48.272;10.794;2022-12-17T13:53:19;96424.28;;;-3.22;74.59
10978;BME280;5542;48.272;10.794;2022-12-17T13:55:49;96443.03;;;-3.10;75.01
10978;BME280;5542;48.272;10.794;2022-12-17T13:58:20;96440.19;;;-3.07;73.98
10978;BME280;5542;48.272;10.794;2022-12-17T14:00:47;96436.88;;;-2.98;73.54
10978;BME280;5542;48.272;10.794;2022-12-17T14:03:19;96438.75;;;-3.00;73.39
10978;BME280;5542;48.272;10.794;2022-12-17T14:05:46;96439.00;;;-3.03;73.47
10978;BME280;5542;48.272;10.794;2022-12-17T14:08:16;96431.97;;;-3.01;73.56
10978;BME280;5542;48.272;10.794;2022-12-17T14:10:48;96437.69;;;-3.18;73.80
10978;BME280;5542;48.272;10.794;2022-12-17T14:13:15;96445.09;;;-3.25;74.56
10978;BME280;5542;48.272;10.794;2022-12-17T14:15:44;96453.25;;;-3.41;75.22
10978;BME280;5542;48.272;10.794;2022-12-17T14:18:14;96452.97;;;-3.38;75.37
10978;BME280;5542;48.272;10.794;2022-12-17T14:20:43;96453.78;;;-3.37;75.87
10978;BME280;5542;48.272;10.794;2022-12-17T14:23:14;96455.31;;;-3.35;75.95
10978;BME280;5542;48.272;10.794;2022-12-17T14:25:48;96457.38;;;-3.28;75.92
10978;BME280;5542;48.272;10.794;2022-12-17T14:28:21;96451.75;;;-3.22;75.78
10978;BME280;5542;48.272;10.794;2022-12-17T14:30:48;96453.38;;;-3.21;75.80
10978;BME280;5542;48.272;10.794;2022-12-17T14:33:26;96461.13;;;-3.32;76.07
10978;BME280;5542;48.272;10.794;2022-12-17T14:35:55;96464.72;;;-3.45;76.99
10978;BME280;5542;48.272;10.794;2022-12-17T14:38:24;96464.72;;;-3.45;77.09